地図

経路データ

SID SEASON NUMBER BASIN SUBBASIN NAME ISO_TIME NATURE LAT LON WMO_WIND WMO_PRES WMO_AGENCY TRACK_TYPE DIST2LAND LANDFALL IFLAG USA_AGENCY USA_ATCF_ID USA_LAT USA_LON USA_RECORD USA_STATUS USA_WIND USA_PRES USA_SSHS USA_R34_NE USA_R34_SE USA_R34_SW USA_R34_NW USA_R50_NE USA_R50_SE USA_R50_SW USA_R50_NW USA_R64_NE USA_R64_SE USA_R64_SW USA_R64_NW USA_POCI USA_ROCI USA_RMW USA_EYE TOKYO_LAT TOKYO_LON TOKYO_GRADE TOKYO_WIND TOKYO_PRES TOKYO_R50_DIR TOKYO_R50_LONG TOKYO_R50_SHORT TOKYO_R30_DIR TOKYO_R30_LONG TOKYO_R30_SHORT TOKYO_LAND CMA_LAT CMA_LON CMA_CAT CMA_WIND CMA_PRES HKO_LAT HKO_LON HKO_CAT HKO_WIND HKO_PRES NEWDELHI_LAT NEWDELHI_LON NEWDELHI_GRADE NEWDELHI_WIND NEWDELHI_PRES NEWDELHI_CI NEWDELHI_DP NEWDELHI_POCI REUNION_LAT REUNION_LON REUNION_TYPE REUNION_WIND REUNION_PRES REUNION_TNUM REUNION_CI REUNION_RMW REUNION_R34_NE REUNION_R34_SE REUNION_R34_SW REUNION_R34_NW REUNION_R50_NE REUNION_R50_SE REUNION_R50_SW REUNION_R50_NW REUNION_R64_NE REUNION_R64_SE REUNION_R64_SW REUNION_R64_NW BOM_LAT BOM_LON BOM_TYPE BOM_WIND BOM_PRES BOM_TNUM BOM_CI BOM_RMW BOM_R34_NE BOM_R34_SE BOM_R34_SW BOM_R34_NW BOM_R50_NE BOM_R50_SE BOM_R50_SW BOM_R50_NW BOM_R64_NE BOM_R64_SE BOM_R64_SW BOM_R64_NW BOM_ROCI BOM_POCI BOM_EYE BOM_POS_METHOD BOM_PRES_METHOD NADI_LAT NADI_LON NADI_CAT NADI_WIND NADI_PRES WELLINGTON_LAT WELLINGTON_LON WELLINGTON_WIND WELLINGTON_PRES DS824_LAT DS824_LON DS824_STAGE DS824_WIND DS824_PRES TD9636_LAT TD9636_LON TD9636_STAGE TD9636_WIND TD9636_PRES TD9635_LAT TD9635_LON TD9635_WIND TD9635_PRES TD9635_ROCI NEUMANN_LAT NEUMANN_LON NEUMANN_CLASS NEUMANN_WIND NEUMANN_PRES MLC_LAT MLC_LON MLC_CLASS MLC_WIND MLC_PRES USA_GUST BOM_GUST BOM_GUST_PER REUNION_GUST REUNION_GUST_PER USA_SEAHGT USA_SEARAD_NE USA_SEARAD_SE USA_SEARAD_SW USA_SEARAD_NW STORM_SPEED STORM_DIR
1912127S18164 1912 22 SP MM NOT_NAMED 1912-05-05 12:00:00 NR -18.4000 164.000 main 201 113 __________O___ -1 -18.4000 164.000 7 21 205
1912127S18164 1912 22 SP MM NOT_NAMED 1912-05-05 15:00:00 NR -19.3512 163.542 main 109 85 __________P___ -1 -19.3512 163.542 7 21 204
1912127S18164 1912 22 SP MM NOT_NAMED 1912-05-05 18:00:00 NR -20.2815 163.095 main 93 93 __________P___ -1 -20.2815 163.095 7 20 204
1912127S18164 1912 22 SP MM NOT_NAMED 1912-05-05 21:00:00 NR -21.1710 162.675 main 168 168 __________P___ -1 -21.1710 162.675 7 19 203
1912127S18164 1912 22 SP MM NOT_NAMED 1912-05-06 00:00:00 NR -22.0000 162.300 main 255 255 __________O___ -1 -22.0000 162.300 7 17 202
1912127S18164 1912 22 SP MM NOT_NAMED 1912-05-06 03:00:00 NR -22.7552 161.984 main 333 333 __________P___ -1 -22.7552 161.984 7 15 200
1912127S18164 1912 22 SP MM NOT_NAMED 1912-05-06 06:00:00 NR -23.4467 161.729 main 397 397 __________P___ -1 -23.4467 161.729 7 14 197
1912127S18164 1912 22 SP MM NOT_NAMED 1912-05-06 09:00:00 NR -24.0898 161.534 main 460 460 __________P___ -1 -24.0898 161.534 7 13 193
1912127S18164 1912 22 SP MM NOT_NAMED 1912-05-06 12:00:00 NR -24.7000 161.400 main 513 513 __________O___ -1 -24.7000 161.400 7 12 194
1912127S18164 1912 22 SP MM NOT_NAMED 1912-05-06 15:00:00 NR -25.2580 161.211 main 576 576 __________P___ -1 -25.2580 161.211 7 11 194
1912127S18164 1912 22 SP MM NOT_NAMED 1912-05-06 18:00:00 NR -25.7955 161.094 main 625 625 __________P___ -1 -25.7955 161.094 7 11 185
1912127S18164 1912 22 SP MM NOT_NAMED 1912-05-06 21:00:00 NR -26.3604 161.104 main 679 679 __________P___ -1 -26.3604 161.104 7 12 171
1912127S18164 1912 22 SP MM NOT_NAMED 1912-05-07 00:00:00 NR -27.0000 161.300 main 724 724 __________O___ -1 -27.0000 161.300 7 15 160
1912127S18164 1912 22 SP MM NOT_NAMED 1912-05-07 03:00:00 NR -27.7865 161.690 main 775 775 __________P___ -1 -27.7865 161.690 7 19 152
1912127S18164 1912 22 SP MM NOT_NAMED 1912-05-07 06:00:00 NR -28.6461 162.277 main 815 815 __________P___ -1 -28.6461 162.277 7 21 146
1912127S18164 1912 22 SP MM NOT_NAMED 1912-05-07 09:00:00 NR -29.5326 163.026 main 872 872 __________P___ -1 -29.5326 163.026 7 23 141
1912127S18164 1912 22 SP MM NOT_NAMED 1912-05-07 12:00:00 NR -30.4000 163.900 main 933 814 __________O___ -1 -30.4000 163.900 7 23 137
1912127S18164 1912 22 SP MM NOT_NAMED 1912-05-07 15:00:00 NR -31.2130 164.863 main 806 694 __________P___ -1 -31.2130 164.863 7 23 133
1912127S18164 1912 22 SP MM NOT_NAMED 1912-05-07 18:00:00 NR -31.9752 165.895 main 681 563 __________P___ -1 -31.9752 165.895 7 23 130
1912127S18164 1912 22 SP MM NOT_NAMED 1912-05-07 21:00:00 NR -32.6998 166.980 main 555 440 __________P___ -1 -32.6998 166.980 7 23 128
1912127S18164 1912 22 SP MM NOT_NAMED 1912-05-08 00:00:00 NR -33.4000 168.100 main 431 __________O___ -1 -33.4000 168.100 7 23 127

デジタル台風データ・検索

IBTrACS Databaseについて

本データベースは、米国NOAAが公開する1842年以降の世界の熱帯低気圧のベストトラックデータアーカイブInternational Best Track Archive for Climate Stewardship (IBTrACS)を、ウェブで閲覧しやすい形式に変換したものです。

最終更新日:2021-10-27